Time;durP1;ratioP1;P1;durP2;ratioP2;P2;SDS_P1;SDS_P2;PMS_P1;PMS_P2;Temp;Humidity;BMP_temperature;BMP_pressure;BME280_temperature;BME280_humidity;BME280_pressure;Samples;Min_cycle;Max_cycle;Signal;HPM_P1;HPM_P2
2022/04/15 00:01:23;;;;;;;10.40;5.32;;;7.30;99.90;;;;;;4977499;28;20050;-80
2022/04/15 00:03:52;;;;;;;9.70;6.05;;;7.00;99.90;;;;;;4962914;28;20049;-79
2022/04/15 00:06:20;;;;;;;8.05;5.22;;;8.90;99.90;;;;;;4961548;28;20047;-80
2022/04/15 00:08:46;;;;;;;14.25;5.60;;;7.20;99.90;;;;;;4962274;28;20031;-80
2022/04/15 00:11:14;;;;;;;10.20;5.30;;;8.90;99.90;;;;;;4945296;28;20089;-80
2022/04/15 00:13:41;;;;;;;7.38;4.40;;;7.40;99.90;;;;;;4980461;28;20407;-80
2022/04/15 00:16:07;;;;;;;7.40;5.50;;;7.40;99.90;;;;;;4978244;28;20053;-80
2022/04/15 00:18:34;;;;;;;12.50;4.70;;;7.50;99.90;;;;;;4960171;28;20097;-80
2022/04/15 00:21:01;;;;;;;9.88;5.78;;;7.40;99.90;;;;;;4977940;28;20058;-80
2022/04/15 00:23:26;;;;;;;7.55;4.50;;;9.10;99.90;;;;;;4977893;28;20494;-80
2022/04/15 00:25:54;;;;;;;9.60;4.30;;;9.20;99.90;;;;;;4962633;28;20077;-81
2022/04/15 00:28:20;;;;;;;10.57;4.50;;;7.70;99.90;;;;;;4978643;28;20039;-80
2022/04/15 00:30:46;;;;;;;7.68;4.05;;;7.50;99.90;;;;;;4975141;28;20122;-81
2022/04/15 00:33:12;;;;;;;7.65;4.38;;;6.30;99.90;;;;;;4976503;28;20558;-80
2022/04/15 00:35:38;;;;;;;13.63;5.05;;;7.80;99.90;;;;;;4963513;28;20313;-80
2022/04/15 00:38:04;;;;;;;6.63;4.07;;;7.50;99.90;;;;;;4962541;28;20041;-80
2022/04/15 00:40:29;;;;;;;9.48;3.97;;;7.60;99.90;;;;;;4959125;28;20299;-80
2022/04/15 00:42:55;;;;;;;8.70;3.85;;;7.10;99.90;;;;;;4975445;28;20042;-80
2022/04/15 00:45:21;;;;;;;9.38;4.13;;;8.00;99.90;;;;;;4983875;28;20085;-80
2022/04/15 00:47:50;;;;;;;10.70;4.65;;;8.00;99.90;;;;;;4979706;28;20051;-80
2022/04/15 00:50:20;;;;;;;8.82;4.32;;;8.00;99.90;;;;;;4981221;28;20494;-82
2022/04/15 00:52:48;;;;;;;10.15;4.30;;;8.00;99.90;;;;;;4971902;28;20042;-80
2022/04/15 00:55:15;;;;;;;5.03;3.97;;;9.90;99.90;;;;;;4982775;28;20042;-80
2022/04/15 00:57:49;;;;;;;9.90;4.63;;;9.10;99.90;;;;;;4971068;28;20533;-81
2022/04/15 01:00:15;;;;;;;;;;;9.80;99.90;;;;;;4971529;28;20053;-80
2022/04/15 01:02:44;;;;;;;11.00;4.60;;;8.10;99.90;;;;;;4979264;28;20445;-80
2022/04/15 01:05:12;;;;;;;6.07;4.10;;;8.10;99.90;;;;;;4968051;28;20057;-81
2022/04/15 01:07:43;;;;;;;16.95;4.20;;;8.00;99.90;;;;;;4984580;28;20042;-80
2022/04/15 01:10:11;;;;;;;11.68;4.75;;;7.50;99.90;;;;;;4946504;28;20050;-80
2022/04/15 01:12:39;;;;;;;11.57;4.43;;;7.70;99.90;;;;;;4965613;28;20116;-83
2022/04/15 01:15:10;;;;;;;11.02;3.95;;;8.00;99.90;;;;;;4985153;28;20050;-80
2022/04/15 01:17:36;;;;;;;8.45;4.70;;;8.20;99.90;;;;;;4982850;28;20072;-80
2022/04/15 01:20:08;;;;;;;12.88;4.25;;;7.70;99.90;;;;;;4964503;28;20443;-80
2022/04/15 01:22:41;;;;;;;10.70;4.53;;;8.20;99.90;;;;;;4964654;28;20046;-81
2022/04/15 01:25:09;;;;;;;9.38;3.90;;;7.60;99.90;;;;;;4953985;28;20058;-80
2022/04/15 01:27:37;;;;;;;10.88;4.43;;;8.00;99.90;;;;;;4966365;28;20478;-81
2022/04/15 01:30:05;;;;;;;9.30;5.22;;;10.20;99.90;;;;;;4986733;28;20045;-80
2022/04/15 01:32:31;;;;;;;10.55;5.20;;;8.20;99.90;;;;;;4977624;28;20224;-79
2022/04/15 01:34:58;;;;;;;11.90;4.43;;;8.00;99.90;;;;;;4983633;28;20501;-80
2022/04/15 01:37:24;;;;;;;9.40;4.43;;;9.30;99.90;;;;;;4980063;28;20537;-80
2022/04/15 01:39:50;;;;;;;10.00;4.80;;;7.80;99.90;;;;;;4980475;28;20047;-80
2022/04/15 01:42:17;;;;;;;9.43;3.53;;;8.20;99.90;;;;;;4968206;28;20184;-80
2022/04/15 01:44:43;;;;;;;8.80;4.20;;;8.20;99.90;;;;;;4983264;28;20510;-80
2022/04/15 01:47:10;;;;;;;19.50;4.68;;;7.80;99.90;;;;;;4981242;28;20370;-80
2022/04/15 01:49:37;;;;;;;4.18;3.00;;;8.10;99.90;;;;;;4961116;28;20046;-80
2022/04/15 01:52:04;;;;;;;9.93;4.25;;;8.20;99.90;;;;;;4978911;28;20117;-82
2022/04/15 01:54:30;;;;;;;8.43;3.70;;;8.30;99.90;;;;;;4976329;28;20402;-80
2022/04/15 01:56:56;;;;;;;9.82;3.72;;;8.00;99.90;;;;;;4980880;28;20539;-80
2022/04/15 01:59:22;;;;;;;4.90;2.97;;;8.40;99.90;;;;;;4979872;28;20105;-80
2022/04/15 02:01:49;;;;;;;7.40;3.15;;;8.10;99.90;;;;;;4982171;28;20525;-80
2022/04/15 02:04:14;;;;;;;11.20;3.83;;;9.90;99.90;;;;;;4962621;28;20089;-80
2022/04/15 02:06:40;;;;;;;9.93;4.10;;;8.40;99.90;;;;;;4982756;28;20498;-80
2022/04/15 02:09:06;;;;;;;9.20;3.90;;;8.40;99.90;;;;;;4969644;28;20056;-82
2022/04/15 02:11:32;;;;;;;9.57;3.53;;;8.40;99.90;;;;;;4961469;28;20046;-79
2022/04/15 02:13:58;;;;;;;7.50;2.80;;;8.10;99.90;;;;;;4962916;28;20372;-80
2022/04/15 02:16:23;;;;;;;6.95;3.67;;;10.50;99.90;;;;;;4953784;28;20668;-80
2022/04/15 02:18:49;;;;;;;7.57;3.35;;;7.00;99.90;;;;;;4985061;28;20055;-80
2022/04/15 02:21:15;;;;;;;7.00;2.40;;;8.40;99.90;;;;;;4963310;28;20045;-80
2022/04/15 02:23:40;;;;;;;11.43;3.13;;;8.50;99.90;;;;;;4978925;28;20133;-80
2022/04/15 02:26:06;;;;;;;5.18;2.40;;;8.20;99.90;;;;;;4975016;28;20051;-84
2022/04/15 02:28:31;;;;;;;6.80;2.65;;;8.60;99.90;;;;;;4987384;28;20121;-81
2022/04/15 02:30:57;;;;;;;9.23;2.90;;;8.50;99.90;;;;;;4982839;28;20470;-80
2022/04/15 02:33:23;;;;;;;8.90;3.63;;;7.50;99.90;;;;;;4962710;28;20050;-81
2022/04/15 02:35:49;;;;;;;7.18;3.17;;;8.60;99.90;;;;;;4987613;28;20054;-80
2022/04/15 02:38:15;;;;;;;10.43;3.75;;;8.50;99.90;;;;;;4968922;28;20173;-81
2022/04/15 02:40:41;;;;;;;8.73;3.47;;;8.50;99.90;;;;;;4965190;28;20129;-80
2022/04/15 02:43:06;;;;;;;12.15;3.47;;;9.40;99.90;;;;;;4959588;28;20039;-80
2022/04/15 02:45:32;;;;;;;11.32;3.67;;;8.50;99.90;;;;;;4987014;28;20034;-80
2022/04/15 02:47:58;;;;;;;11.75;3.85;;;8.90;99.90;;;;;;4980206;28;20026;-80
2022/04/15 02:50:24;;;;;;;9.35;3.30;;;8.40;99.90;;;;;;4978092;28;20471;-80
2022/04/15 02:52:50;;;;;;;9.27;3.53;;;8.50;99.90;;;;;;4981458;28;20042;-81
2022/04/15 02:55:16;;;;;;;6.35;3.25;;;8.50;99.90;;;;;;4977064;28;20035;-80
2022/04/15 02:57:41;;;;;;;8.05;3.65;;;8.50;99.90;;;;;;4981062;28;20046;-80
2022/04/15 03:00:08;;;;;;;9.07;4.28;;;8.10;99.90;;;;;;4986497;28;20054;-80
2022/04/15 03:02:34;;;;;;;8.32;4.05;;;8.50;99.90;;;;;;4978148;28;20050;-80
2022/04/15 03:05:01;;;;;;;13.88;4.43;;;8.40;99.90;;;;;;4986629;28;20145;-80
2022/04/15 03:07:26;;;;;;;10.10;4.60;;;8.50;99.90;;;;;;4986890;28;20457;-80
2022/04/15 03:09:52;;;;;;;14.68;4.32;;;8.60;99.90;;;;;;4983936;28;20121;-81
2022/04/15 03:12:18;;;;;;;9.35;5.43;;;9.90;99.90;;;;;;4982554;28;20399;-81
2022/04/15 03:14:44;;;;;;;16.42;6.88;;;9.60;99.90;;;;;;4979026;28;20064;-80
2022/04/15 03:17:11;;;;;;;11.68;7.22;;;8.60;99.90;;;;;;4984501;28;20144;-80
2022/04/15 03:19:37;;;;;;;14.35;9.85;;;8.50;99.90;;;;;;4980480;28;20042;-80
2022/04/15 03:22:05;;;;;;;16.10;9.80;;;8.50;99.90;;;;;;4984533;28;20404;-80
2022/04/15 03:24:30;;;;;;;16.40;10.90;;;8.50;99.90;;;;;;4961661;28;20050;-81
2022/04/15 03:26:56;;;;;;;18.88;11.48;;;8.50;99.90;;;;;;4977359;28;20046;-80
2022/04/15 03:29:22;;;;;;;18.60;11.80;;;7.60;99.90;;;;;;4968328;28;20438;-80
2022/04/15 03:31:48;;;;;;;13.95;11.82;;;8.00;99.90;;;;;;4979918;28;20070;-79
2022/04/15 03:34:13;;;;;;;14.10;11.70;;;8.20;99.90;;;;;;4978147;28;20394;-80
2022/04/15 03:36:40;;;;;;;11.82;10.63;;;8.30;99.90;;;;;;4984816;28;20051;-79
2022/04/15 03:39:06;;;;;;;14.60;10.07;;;8.00;99.90;;;;;;4975991;28;20051;-79
2022/04/15 03:41:32;;;;;;;12.52;10.85;;;8.40;99.90;;;;;;4980813;28;20049;-79
2022/04/15 03:43:57;;;;;;;11.23;9.25;;;9.60;99.90;;;;;;4979239;28;20046;-80
2022/04/15 03:46:23;;;;;;;12.73;9.23;;;8.40;99.90;;;;;;4986821;28;20042;-79
2022/04/15 03:48:48;;;;;;;8.77;7.90;;;8.00;99.90;;;;;;4980079;28;20404;-79
2022/04/15 03:51:14;;;;;;;11.13;7.45;;;8.40;99.90;;;;;;4979425;28;20506;-79
2022/04/15 03:53:40;;;;;;;9.02;6.45;;;8.40;99.90;;;;;;4978183;28;20486;-80
2022/04/15 03:56:08;;;;;;;7.38;5.65;;;8.40;99.90;;;;;;4963143;28;20458;-81
2022/04/15 03:58:35;;;;;;;4.88;4.47;;;8.20;99.90;;;;;;4982100;28;20037;-80
2022/04/15 04:01:01;;;;;;;6.35;5.13;;;8.40;99.90;;;;;;4980564;28;20038;-79
2022/04/15 04:03:29;;;;;;;4.95;4.20;;;8.60;99.90;;;;;;4969131;28;20628;-80
2022/04/15 04:05:55;;;;;;;4.72;4.20;;;8.30;99.90;;;;;;4966335;28;20038;-80
2022/04/15 04:08:20;;;;;;;4.60;4.20;;;8.60;99.90;;;;;;4978290;28;20250;-80
2022/04/15 04:10:46;;;;;;;4.32;3.85;;;8.40;99.90;;;;;;4986114;28;20046;-79
2022/04/15 04:13:12;;;;;;;5.43;4.32;;;8.20;99.90;;;;;;4982152;28;20125;-79
2022/04/15 04:15:37;;;;;;;5.45;4.20;;;8.90;99.90;;;;;;4963959;28;20097;-80
2022/04/15 04:18:03;;;;;;;6.05;4.00;;;8.10;99.90;;;;;;4966015;28;20041;-81
2022/04/15 04:20:29;;;;;;;6.13;3.85;;;8.20;99.90;;;;;;4982413;28;20301;-81
2022/04/15 04:22:56;;;;;;;4.72;4.22;;;8.20;99.90;;;;;;4960437;28;20039;-81
2022/04/15 04:25:21;;;;;;;22.33;14.73;;;8.10;99.90;;;;;;4979292;28;20556;-79
2022/04/15 04:27:47;;;;;;;5.78;4.30;;;8.20;99.90;;;;;;4983384;28;20050;-79
2022/04/15 04:30:14;;;;;;;4.30;3.90;;;7.90;99.90;;;;;;4981738;28;20088;-79
2022/04/15 04:32:41;;;;;;;3.80;3.50;;;7.80;99.90;;;;;;4985695;28;20038;-79
2022/04/15 04:35:08;;;;;;;4.15;3.33;;;8.60;99.90;;;;;;4966275;28;20545;-78
2022/04/15 04:37:34;;;;;;;3.28;3.03;;;8.10;99.90;;;;;;4965834;28;20042;-80
2022/04/15 04:40:00;;;;;;;3.35;3.00;;;8.10;99.90;;;;;;4972495;28;20038;-80
2022/04/15 04:42:27;;;;;;;3.83;2.97;;;8.00;99.90;;;;;;4981407;28;20049;-83
2022/04/15 04:44:53;;;;;;;5.10;2.45;;;7.50;99.90;;;;;;4970240;28;20093;-80
2022/04/15 04:47:20;;;;;;;6.57;2.60;;;8.00;99.90;;;;;;4971719;28;20050;-81
2022/04/15 04:49:46;;;;;;;2.25;2.05;;;8.00;99.90;;;;;;4989251;28;20042;-80
2022/04/15 04:52:13;;;;;;;2.40;2.10;;;7.50;99.90;;;;;;4984559;28;20089;-80
2022/04/15 04:54:41;;;;;;;2.83;2.63;;;8.00;99.90;;;;;;4968622;28;20046;-82
2022/04/15 04:57:07;;;;;;;2.20;1.73;;;7.90;99.90;;;;;;4984586;28;20057;-80
2022/04/15 04:59:33;;;;;;;3.13;1.60;;;9.70;99.90;;;;;;4967502;28;20035;-80
2022/04/15 05:01:59;;;;;;;2.95;1.38;;;7.70;99.90;;;;;;4966080;28;20078;-80
2022/04/15 05:04:25;;;;;;;9.32;5.72;;;7.50;99.90;;;;;;4980195;28;20070;-79
2022/04/15 05:06:51;;;;;;;7.38;4.38;;;7.80;99.90;;;;;;4965948;28;20050;-79
2022/04/15 05:09:17;;;;;;;4.65;2.10;;;7.80;99.90;;;;;;4981818;28;20058;-79
2022/04/15 05:11:43;;;;;;;2.28;1.90;;;7.50;99.90;;;;;;4980377;28;20047;-79
2022/04/15 05:14:09;;;;;;;2.55;2.35;;;8.80;99.90;;;;;;4982353;28;20070;-79
2022/04/15 05:16:34;;;;;;;3.63;2.17;;;8.10;99.90;;;;;;4979344;28;20046;-79
2022/04/15 05:19:00;;;;;;;3.15;2.15;;;7.30;99.90;;;;;;4965477;28;20034;-79
2022/04/15 05:21:27;;;;;;;3.42;2.10;;;7.60;99.90;;;;;;4982179;28;20046;-80
2022/04/15 05:23:52;;;;;;;3.38;3.10;;;9.70;99.90;;;;;;4969886;28;20031;-79
2022/04/15 05:26:20;;;;;;;15.35;10.23;;;9.00;99.90;;;;;;4977614;28;20081;-78
2022/04/15 05:28:46;;;;;;;3.08;2.05;;;7.70;99.90;;;;;;4969589;28;20490;-79
2022/04/15 05:31:12;;;;;;;4.38;1.35;;;7.00;99.90;;;;;;4982977;28;20068;-80
2022/04/15 05:33:37;;;;;;;2.55;1.40;;;9.80;99.90;;;;;;4626185;28;9999705;-79
2022/04/15 05:36:03;;;;;;;2.42;2.20;;;7.80;99.90;;;;;;4979065;28;20042;-80
2022/04/15 05:38:29;;;;;;;4.97;1.38;;;7.80;99.90;;;;;;4977351;28;20552;-79
2022/04/15 05:40:54;;;;;;;2.60;1.80;;;8.50;99.90;;;;;;4976412;28;20106;-79
2022/04/15 05:43:20;;;;;;;2.70;1.92;;;7.20;99.90;;;;;;4960466;28;20035;-79
2022/04/15 05:45:46;;;;;;;3.40;1.70;;;7.70;99.90;;;;;;4984771;28;20468;-80
2022/04/15 05:48:12;;;;;;;3.90;1.98;;;7.40;99.90;;;;;;4965583;28;20487;-80
2022/04/15 05:50:41;;;;;;;3.17;2.13;;;8.60;99.90;;;;;;4978152;28;20051;-79
2022/04/15 05:53:06;;;;;;;3.83;2.20;;;7.70;99.90;;;;;;4978498;28;20035;-80
2022/04/15 05:55:33;;;;;;;6.35;5.00;;;7.60;99.90;;;;;;4963073;28;20785;-80
2022/04/15 05:57:59;;;;;;;4.22;2.55;;;7.40;99.90;;;;;;4979402;28;20046;-79
2022/04/15 06:00:24;;;;;;;6.65;3.38;;;7.60;99.90;;;;;;4962614;28;20061;-80
2022/04/15 06:02:50;;;;;;;5.00;2.42;;;9.00;99.90;;;;;;4984965;28;20035;-78
2022/04/15 06:05:16;;;;;;;4.38;2.72;;;7.50;99.90;;;;;;4979481;28;20625;-77
2022/04/15 06:07:41;;;;;;;3.85;2.95;;;7.50;99.90;;;;;;4964381;28;20094;-78
2022/04/15 06:10:07;;;;;;;3.60;2.47;;;7.60;99.90;;;;;;4980004;28;20042;-76
2022/04/15 06:15:20;;;;;;;3.97;3.15;;;8.20;99.90;;;;;;4983521;28;20047;-76
2022/04/15 06:17:46;;;;;;;3.63;3.28;;;7.60;99.90;;;;;;4978951;28;20050;-77
2022/04/15 06:20:11;;;;;;;6.57;3.63;;;7.30;99.90;;;;;;4961295;28;20418;-76
2022/04/15 06:22:38;;;;;;;6.20;4.03;;;7.60;99.90;;;;;;4979319;28;20035;-77
2022/04/15 06:25:03;;;;;;;9.68;3.78;;;8.40;99.90;;;;;;4980219;28;20065;-77
2022/04/15 06:27:29;;;;;;;4.25;3.85;;;7.70;99.90;;;;;;4987154;28;20570;-79
2022/04/15 06:29:55;;;;;;;6.70;4.28;;;7.40;99.90;;;;;;4970198;28;20185;-81
2022/04/15 06:32:20;;;;;;;5.43;3.80;;;7.70;99.90;;;;;;4980436;28;20074;-80
2022/04/15 06:34:46;;;;;;;4.50;3.78;;;7.70;99.90;;;;;;4963757;28;20137;-82
2022/04/15 06:37:12;;;;;;;5.65;3.75;;;7.80;99.90;;;;;;4985875;28;20049;-79
2022/04/15 06:39:37;;;;;;;6.05;4.65;;;8.50;99.90;;;;;;4969493;28;20037;-79
2022/04/15 06:42:03;;;;;;;6.63;4.35;;;9.40;99.90;;;;;;4979178;28;20841;-80
2022/04/15 06:44:28;;;;;;;8.68;4.75;;;7.90;99.90;;;;;;4980903;28;20056;-79
2022/04/15 06:46:54;;;;;;;8.45;6.25;;;8.60;99.90;;;;;;4979266;28;20057;-80
2022/04/15 06:49:20;;;;;;;16.23;12.73;;;7.90;99.90;;;;;;4959325;28;20047;-80
2022/04/15 06:51:45;;;;;;;8.63;6.88;;;7.90;99.90;;;;;;4946076;28;20134;-80
2022/04/15 06:54:11;;;;;;;13.50;7.13;;;9.30;99.90;;;;;;4948081;28;20042;-79
2022/04/15 06:56:36;;;;;;;8.27;6.80;;;7.90;99.90;;;;;;4963430;28;20048;-80
2022/04/15 06:59:02;;;;;;;7.88;6.32;;;9.50;99.90;;;;;;4978106;28;20065;-80
2022/04/15 07:01:29;;;;;;;9.73;6.47;;;7.90;99.90;;;;;;4976552;28;20086;-80
2022/04/15 07:03:54;;;;;;;9.02;6.20;;;9.80;99.90;;;;;;4980022;28;20061;-80
2022/04/15 07:06:20;;;;;;;10.93;7.65;;;7.80;99.90;;;;;;4980680;28;20516;-80
2022/04/15 07:08:45;;;;;;;9.27;8.00;;;7.70;99.90;;;;;;4978963;28;20483;-80
2022/04/15 07:11:13;;;;;;;10.05;7.28;;;8.00;99.90;;;;;;4975999;28;20535;-79
2022/04/15 07:13:38;;;;;;;7.32;6.30;;;8.00;99.90;;;;;;4977249;28;20130;-80
2022/04/15 07:16:04;;;;;;;9.57;7.45;;;8.10;99.90;;;;;;4963842;28;20162;-80
2022/04/15 07:18:29;;;;;;;12.82;7.78;;;8.10;99.90;;;;;;4978924;28;20050;-79
2022/04/15 07:20:55;;;;;;;12.10;7.20;;;8.10;99.90;;;;;;4961013;28;20042;-79
2022/04/15 07:23:20;;;;;;;12.05;7.50;;;8.10;99.90;;;;;;4976753;28;20042;-80
2022/04/15 07:25:46;;;;;;;10.35;7.53;;;8.20;99.90;;;;;;4944806;28;20058;-80
2022/04/15 07:28:12;;;;;;;11.45;7.20;;;8.20;99.90;;;;;;4947576;28;20046;-79
2022/04/15 07:30:37;;;;;;;13.45;8.10;;;8.20;99.90;;;;;;4980040;28;20131;-80
2022/04/15 07:33:04;;;;;;;9.57;6.93;;;8.20;99.90;;;;;;4976910;28;20557;-81
2022/04/15 07:35:29;;;;;;;12.52;7.43;;;8.20;99.90;;;;;;4976779;28;20438;-81
2022/04/15 07:37:55;;;;;;;14.52;7.93;;;8.30;99.90;;;;;;4978700;28;20557;-80
2022/04/15 07:40:27;;;;;;;11.00;7.10;;;8.30;99.90;;;;;;4980131;28;20486;-80
2022/04/15 07:42:53;;;;;;;12.63;8.43;;;8.40;99.90;;;;;;4979578;28;20054;-80
2022/04/15 07:45:18;;;;;;;14.30;8.85;;;8.40;99.90;;;;;;4975650;28;20046;-80
2022/04/15 07:47:44;;;;;;;14.27;7.72;;;8.50;99.90;;;;;;4977243;28;20380;-80
2022/04/15 07:50:10;;;;;;;10.93;8.15;;;8.50;99.90;;;;;;4980677;28;20097;-80
2022/04/15 07:52:36;;;;;;;13.65;9.32;;;8.50;99.90;;;;;;4978782;28;20070;-80
2022/04/15 07:55:02;;;;;;;21.08;12.73;;;8.60;99.90;;;;;;4976909;28;20050;-80
2022/04/15 07:57:30;;;;;;;14.43;8.43;;;8.60;99.90;;;;;;4976071;28;20035;-80
2022/04/15 07:59:55;;;;;;;16.65;8.63;;;8.60;99.90;;;;;;4977154;28;20046;-80
2022/04/15 08:02:21;;;;;;;18.27;7.85;;;8.60;99.90;;;;;;4983619;28;20557;-80
2022/04/15 08:04:47;;;;;;;16.77;7.70;;;8.70;99.90;;;;;;4966850;28;20446;-80
2022/04/15 08:07:12;;;;;;;16.40;7.30;;;8.70;99.90;;;;;;4981073;28;20051;-80
2022/04/15 08:09:39;;;;;;;16.75;6.93;;;8.70;99.90;;;;;;4980357;28;20420;-81
2022/04/15 08:12:08;;;;;;;9.10;5.22;;;8.80;99.90;;;;;;4982501;28;20088;-80
2022/04/15 08:14:34;;;;;;;5.50;3.65;;;8.80;99.90;;;;;;4982582;28;20042;-80
2022/04/15 08:17:00;;;;;;;9.88;4.53;;;8.80;99.90;;;;;;4964936;28;20057;-80
2022/04/15 08:19:26;;;;;;;7.15;3.20;;;8.90;99.90;;;;;;4947253;28;20051;-80
2022/04/15 08:21:51;;;;;;;4.70;3.50;;;8.90;99.90;;;;;;4979804;28;20423;-80
2022/04/15 08:24:17;;;;;;;6.65;4.20;;;9.20;99.90;;;;;;4983032;28;20046;-79
2022/04/15 08:26:44;;;;;;;7.43;3.63;;;9.00;99.90;;;;;;4983068;28;20058;-79
2022/04/15 08:29:10;;;;;;;8.02;3.92;;;10.00;99.90;;;;;;4979019;28;20455;-80
2022/04/15 08:31:36;;;;;;;9.88;3.55;;;9.10;99.90;;;;;;4947857;28;20094;-80
2022/04/15 08:34:02;;;;;;;4.95;2.85;;;9.20;99.90;;;;;;4981942;28;20491;-79
2022/04/15 08:36:28;;;;;;;6.07;3.30;;;9.30;99.90;;;;;;4982810;28;20057;-80
2022/04/15 08:38:53;;;;;;;6.15;3.55;;;9.30;99.90;;;;;;4982498;28;20038;-79
2022/04/15 08:41:21;;;;;;;5.85;3.25;;;9.40;99.90;;;;;;4978390;28;20047;-80
2022/04/15 08:43:47;;;;;;;13.10;3.78;;;9.50;99.90;;;;;;4963255;28;20049;-79
2022/04/15 08:46:13;;;;;;;5.60;3.42;;;9.50;99.90;;;;;;4982769;28;20113;-79
2022/04/15 08:48:39;;;;;;;11.18;6.28;;;9.60;99.90;;;;;;4982058;28;20042;-80
2022/04/15 08:51:06;;;;;;;20.80;11.43;;;9.70;99.90;;;;;;4980311;28;20041;-80
2022/04/15 08:53:32;;;;;;;11.82;4.97;;;9.80;99.90;;;;;;4980802;28;20055;-79
2022/04/15 08:55:58;;;;;;;7.47;4.50;;;9.80;99.90;;;;;;4979822;28;20053;-80
2022/04/15 08:58:27;;;;;;;9.38;4.22;;;9.80;99.90;;;;;;4983894;28;20034;-80
2022/04/15 09:00:54;;;;;;;12.50;4.18;;;9.80;99.90;;;;;;4981906;28;20093;-80
2022/04/15 09:03:20;;;;;;;8.27;4.28;;;9.90;99.90;;;;;;4962125;28;20049;-80
2022/04/15 09:05:49;;;;;;;9.93;4.45;;;9.80;99.90;;;;;;4962689;28;20398;-81
2022/04/15 09:08:15;;;;;;;8.15;4.30;;;11.40;99.90;;;;;;4982256;28;20483;-80
2022/04/15 09:10:42;;;;;;;6.80;4.70;;;9.80;99.90;;;;;;4982053;28;20042;-81
2022/04/15 09:13:22;;;;;;;9.60;4.70;;;9.80;99.90;;;;;;4980430;28;20038;-80
2022/04/15 09:15:48;;;;;;;5.07;4.22;;;9.80;99.90;;;;;;4979007;28;20431;-80
2022/04/15 09:18:36;;;;;;;9.65;4.53;;;9.90;99.90;;;;;;4964728;28;20121;-80
2022/04/15 09:21:21;;;;;;;7.72;4.00;;;9.90;99.90;;;;;;4974847;28;20043;-80
2022/04/15 09:23:49;;;;;;;7.55;4.15;;;9.90;99.90;;;;;;4982586;28;20508;-81
2022/04/15 09:26:15;;;;;;;7.03;3.85;;;9.90;99.90;;;;;;4980694;28;20038;-80
2022/04/15 09:28:42;;;;;;;10.18;4.28;;;10.00;99.90;;;;;;4979130;28;20410;-80
2022/04/15 09:31:15;;;;;;;6.05;3.70;;;10.00;99.90;;;;;;4979730;28;20057;-83
2022/04/15 09:33:57;;;;;;;8.05;3.78;;;10.10;99.90;;;;;;4982003;28;20046;-80
2022/04/15 09:36:34;;;;;;;9.50;4.15;;;10.10;99.90;;;;;;4978530;28;20501;-80
2022/04/15 09:39:10;;;;;;;9.40;4.13;;;10.10;99.90;;;;;;4978497;28;20053;-80
2022/04/15 09:41:41;;;;;;;8.82;3.95;;;10.20;99.90;;;;;;4983434;28;20046;-81
2022/04/15 09:44:11;;;;;;;8.38;4.53;;;10.20;99.90;;;;;;4981662;28;20046;-80
2022/04/15 09:46:37;;;;;;;6.28;4.03;;;10.20;99.90;;;;;;4978278;28;20069;-80
2022/04/15 09:49:07;;;;;;;4.82;4.03;;;10.20;99.90;;;;;;4962598;28;20419;-80
2022/04/15 09:51:43;;;;;;;6.47;3.78;;;10.20;99.90;;;;;;4981095;28;20034;-79
2022/04/15 09:54:18;;;;;;;12.63;4.68;;;9.00;99.90;;;;;;4979893;28;20050;-81
2022/04/15 09:56:46;;;;;;;5.80;3.85;;;10.30;99.90;;;;;;4978248;28;20086;-80
2022/04/15 09:59:15;;;;;;;6.97;4.47;;;10.30;99.90;;;;;;4979257;28;20076;-79
2022/04/15 10:01:47;;;;;;;6.75;4.72;;;10.40;99.90;;;;;;4981208;28;20054;-80
2022/04/15 10:04:14;;;;;;;7.38;4.53;;;10.50;99.90;;;;;;4979468;28;20039;-79
2022/04/15 10:06:41;;;;;;;5.65;4.43;;;10.60;99.90;;;;;;4977572;28;20109;-80
2022/04/15 10:09:12;;;;;;;6.35;4.68;;;10.60;99.90;;;;;;4980412;28;20514;-80
2022/04/15 10:11:40;;;;;;;10.13;5.10;;;10.60;99.90;;;;;;4981056;28;20355;-80
2022/04/15 10:14:07;;;;;;;8.32;5.53;;;11.10;99.90;;;;;;4979418;28;20039;-80
2022/04/15 10:16:36;;;;;;;9.82;5.05;;;11.20;99.90;;;;;;4977608;28;20601;-80
2022/04/15 10:19:02;;;;;;;9.00;5.05;;;10.70;99.90;;;;;;4977954;28;20062;-81
2022/04/15 10:21:32;;;;;;;8.05;4.93;;;10.80;99.90;;;;;;4981650;28;20360;-80
2022/04/15 10:24:01;;;;;;;8.48;5.20;;;10.80;99.90;;;;;;4980961;28;20394;-81
2022/04/15 10:26:27;;;;;;;8.30;4.72;;;10.80;99.90;;;;;;4979317;28;20498;-81
2022/04/15 10:28:54;;;;;;;9.25;4.65;;;10.80;99.90;;;;;;4976937;28;20054;-83
2022/04/15 10:31:19;;;;;;;9.45;5.07;;;10.80;99.90;;;;;;4981327;28;20055;-81
2022/04/15 10:33:49;;;;;;;7.13;4.47;;;10.80;99.90;;;;;;4982196;28;20038;-83
2022/04/15 10:36:22;;;;;;;8.93;5.13;;;10.80;99.90;;;;;;4978561;28;20082;-82
2022/04/15 10:39:03;;;;;;;7.35;4.50;;;10.80;99.90;;;;;;4977329;28;20610;-82
2022/04/15 10:41:29;;;;;;;7.80;4.22;;;10.80;99.90;;;;;;4977594;28;20039;-82
2022/04/15 10:43:59;;;;;;;5.63;3.63;;;10.80;99.90;;;;;;4978748;28;20074;-82
2022/04/15 10:46:31;;;;;;;8.70;4.05;;;10.80;99.90;;;;;;4980050;28;20730;-83
2022/04/15 10:48:59;;;;;;;5.30;4.00;;;10.80;99.90;;;;;;4979527;28;20031;-81
2022/04/15 10:51:33;;;;;;;8.68;4.28;;;10.90;99.90;;;;;;4977066;28;20035;-82
2022/04/15 10:54:17;;;;;;;;;;;10.90;99.90;;;;;;4977483;28;20137;-82
2022/04/15 10:56:59;;;;;;;5.38;3.95;;;10.90;99.90;;;;;;4960001;28;20433;-80
2022/04/15 11:02:21;;;;;;;5.05;4.53;;;10.90;99.90;;;;;;4977216;28;20050;-82
2022/04/15 11:04:51;;;;;;;8.55;4.50;;;10.90;99.90;;;;;;4976856;28;20105;-81
2022/04/15 11:07:39;;;;;;;9.35;4.22;;;10.90;99.90;;;;;;4979862;28;20094;-82
2022/04/15 11:10:33;;;;;;;9.50;5.40;;;10.90;99.90;;;;;;4963381;28;20116;-80
2022/04/15 11:13:01;;;;;;;7.28;4.22;;;10.90;99.90;;;;;;4960875;28;20042;-80
2022/04/15 11:15:55;;;;;;;9.68;4.30;;;10.90;99.90;;;;;;4963629;28;20410;-80
2022/04/15 11:18:20;;;;;;;8.68;4.47;;;10.80;99.90;;;;;;4977604;28;20046;-82
2022/04/15 11:20:46;;;;;;;8.98;4.45;;;10.80;99.90;;;;;;4976381;28;20073;-82
2022/04/15 11:23:12;;;;;;;15.32;7.22;;;11.90;99.90;;;;;;4976034;28;20395;-81
2022/04/15 11:25:42;;;;;;;12.30;6.32;;;10.80;99.90;;;;;;4979494;28;20050;-81
2022/04/15 11:28:09;;;;;;;10.75;5.05;;;10.80;99.90;;;;;;4963787;28;20434;-79
2022/04/15 11:30:34;;;;;;;9.10;4.68;;;10.80;99.90;;;;;;4975996;28;20043;-82
2022/04/15 11:33:04;;;;;;;8.98;5.10;;;10.80;99.90;;;;;;4977770;28;20039;-83
2022/04/15 11:35:35;;;;;;;10.50;5.13;;;10.70;99.90;;;;;;4978860;28;20074;-82
2022/04/15 11:38:13;;;;;;;8.55;5.20;;;10.70;99.90;;;;;;4980128;28;20034;-82
2022/04/15 11:40:43;;;;;;;13.25;5.05;;;10.70;99.90;;;;;;4976578;28;20359;-82
2022/04/15 11:43:11;;;;;;;11.85;5.60;;;10.70;99.90;;;;;;4976735;28;20122;-81
2022/04/15 11:45:39;;;;;;;9.52;5.35;;;10.70;99.90;;;;;;4977416;28;20043;-81
2022/04/15 11:48:15;;;;;;;12.82;4.75;;;11.70;99.90;;;;;;4944995;28;20130;-82
2022/04/15 11:50:41;;;;;;;8.10;5.00;;;10.70;99.90;;;;;;4975957;28;20146;-82
2022/04/15 11:53:07;;;;;;;8.02;4.70;;;10.70;99.90;;;;;;4959463;28;20047;-82
2022/04/15 11:55:45;;;;;;;9.77;4.95;;;10.70;99.90;;;;;;4980671;28;20050;-82
2022/04/15 11:58:12;;;;;;;7.32;4.93;;;10.70;99.90;;;;;;4980834;28;20044;-82
2022/04/15 12:00:37;;;;;;;14.30;5.07;;;10.70;99.90;;;;;;4976893;28;20035;-82
2022/04/15 12:03:05;;;;;;;7.80;5.10;;;10.70;99.90;;;;;;4977354;28;20165;-81
2022/04/15 12:05:30;;;;;;;7.50;4.60;;;10.70;99.90;;;;;;4979281;28;20050;-82
2022/04/15 12:07:56;;;;;;;8.02;4.20;;;10.60;99.90;;;;;;4979885;28;20137;-81
2022/04/15 12:10:21;;;;;;;5.53;3.92;;;10.70;99.90;;;;;;4978049;28;20387;-82
2022/04/15 12:12:49;;;;;;;6.80;4.57;;;10.70;99.90;;;;;;4975617;28;20487;-83
2022/04/15 12:15:15;;;;;;;7.00;4.00;;;10.70;99.90;;;;;;4978226;28;20053;-83
2022/04/15 12:17:42;;;;;;;8.63;4.70;;;10.60;99.90;;;;;;4979977;28;20038;-83
2022/04/15 12:20:08;;;;;;;8.25;4.82;;;10.70;99.90;;;;;;4981417;28;20460;-83
2022/04/15 12:22:35;;;;;;;11.05;4.70;;;10.70;99.90;;;;;;4978355;28;20463;-81
2022/04/15 12:25:18;;;;;;;10.98;4.80;;;10.70;99.90;;;;;;4976090;28;20406;-82
2022/04/15 12:27:45;;;;;;;10.35;5.55;;;10.60;99.90;;;;;;4976984;28;20035;-82
2022/04/15 12:30:33;;;;;;;9.02;5.10;;;10.60;99.90;;;;;;4959316;28;20057;-82
2022/04/15 12:33:12;;;;;;;9.27;5.00;;;11.40;99.90;;;;;;4956746;28;20043;-81
2022/04/15 12:36:01;;;;;;;9.95;4.95;;;10.60;99.90;;;;;;4976430;28;20074;-82
2022/04/15 12:38:27;;;;;;;7.53;4.95;;;10.60;99.90;;;;;;4977333;28;20517;-83
2022/04/15 12:40:59;;;;;;;7.43;4.72;;;10.60;99.90;;;;;;4979368;28;20378;-82
2022/04/15 12:43:25;;;;;;;5.30;3.78;;;10.50;99.90;;;;;;4978964;28;20051;-83
2022/04/15 12:45:58;;;;;;;7.53;4.15;;;10.50;99.90;;;;;;4975578;28;20076;-82
2022/04/15 12:48:24;;;;;;;7.53;3.67;;;10.50;99.90;;;;;;4964276;28;20043;-83
2022/04/15 12:50:58;;;;;;;6.65;4.55;;;10.50;99.90;;;;;;4982504;28;20202;-83
2022/04/15 12:53:25;;;;;;;8.88;4.25;;;10.50;99.90;;;;;;4981113;28;20054;-80
2022/04/15 12:55:53;;;;;;;13.10;5.28;;;10.50;99.90;;;;;;4979332;28;20539;-83
2022/04/15 12:58:29;;;;;;;7.72;4.55;;;10.50;99.90;;;;;;4979624;28;20134;-82